Time;durP1;ratioP1;P1;durP2;ratioP2;P2;SDS_P1;SDS_P2;PMS_P1;PMS_P2;Temp;Humidity;BMP_temperature;BMP_pressure;BME280_temperature;BME280_humidity;BME280_pressure;Samples;Min_cycle;Max_cycle;Signal;HPM_P1;HPM_P2
2023/03/07 00:01:33;;;;;;;33.00;19.60;;;;;;;4.62;100.00;147214.09;5048501;28;20262;-60
2023/03/07 00:04:01;;;;;;;23.80;18.87;;;;;;;4.55;100.00;147196.44;5049910;28;20202;-59
2023/03/07 00:06:28;;;;;;;25.53;18.97;;;;;;;4.67;100.00;147226.63;5049385;28;20197;-59
2023/03/07 00:08:57;;;;;;;29.03;19.03;;;;;;;4.53;100.00;147192.69;5049622;28;20520;-61
2023/03/07 00:11:24;;;;;;;28.20;19.03;;;;;;;4.67;100.00;147226.63;5049689;28;20177;-60
2023/03/07 00:13:52;;;;;;;33.03;19.30;;;;;;;4.79;100.00;147255.59;5049320;28;20285;-59
2023/03/07 00:16:20;;;;;;;27.87;17.37;;;;;;;4.70;100.00;147234.19;5049125;28;20248;-59
2023/03/07 00:18:48;;;;;;;26.50;18.07;;;;;;;4.76;100.00;147249.28;5049440;28;20583;-60
2023/03/07 00:21:18;;;;;;;29.40;19.07;;;;;;;4.83;100.00;147266.91;5049223;28;20243;-59
2023/03/07 00:23:46;;;;;;;25.70;19.17;;;;;;;4.69;100.00;147231.69;5049293;28;20181;-60
2023/03/07 00:26:14;;;;;;;25.77;18.00;;;;;;;4.80;100.00;147259.34;5049410;28;20189;-59
2023/03/07 00:28:41;;;;;;;26.53;17.97;;;;;;;4.30;100.00;147134.81;5049391;28;20674;-59
2023/03/07 00:31:10;;;;;;;25.43;17.67;;;;;;;4.30;100.00;147133.56;5049303;28;20568;-59
2023/03/07 00:33:38;;;;;;;25.27;17.37;;;;;;;4.33;100.00;147142.34;5049000;28;20284;-58
2023/03/07 00:36:07;;;;;;;30.50;19.10;;;;;;;4.34;100.00;147144.88;5049216;28;20205;-60
2023/03/07 00:38:35;;;;;;;31.43;18.53;;;;;;;4.46;100.00;147175.06;5048915;28;20193;-59
2023/03/07 00:41:04;;;;;;;26.00;18.63;;;;;;;4.59;100.00;147206.50;5048906;28;20189;-60
2023/03/07 00:43:32;;;;;;;28.40;18.53;;;;;;;4.52;100.00;147188.91;5048918;28;20186;-60
2023/03/07 00:45:59;;;;;;;29.67;20.03;;;;;;;4.47;100.00;147177.59;5048901;28;20190;-60
2023/03/07 00:48:26;;;;;;;22.07;18.57;;;;;;;4.57;100.00;147201.50;5049184;28;20193;-61
2023/03/07 00:50:54;;;;;;;25.03;18.80;;;;;;;4.62;100.00;147214.09;5049096;28;20185;-60
2023/03/07 00:53:21;;;;;;;54.53;27.93;;;;;;;4.60;100.00;138465.31;5049041;28;20631;-61
2023/03/07 00:55:57;;;;;;;54.40;28.90;;;;;;;4.79;100.00;124894.53;5048631;28;20200;-60
2023/03/07 00:58:25;;;;;;;44.60;27.40;;;;;;;4.78;100.00;136178.00;5048961;28;20555;-59
2023/03/07 01:00:52;;;;;;;30.97;19.47;;;;;;;4.80;100.00;143245.69;5048597;28;20209;-59
2023/03/07 01:03:19;;;;;;;46.20;28.03;;;;;;;4.88;100.00;147279.47;5048832;28;20197;-59
2023/03/07 01:05:46;;;;;;;52.33;29.53;;;;;;;4.88;100.00;147279.47;5048548;28;20196;-60
2023/03/07 01:08:13;;;;;;;45.00;27.60;;;;;;;4.86;100.00;147273.19;5048860;28;20559;-61
2023/03/07 01:10:40;;;;;;;56.40;28.30;;;;;;;4.70;100.00;147232.94;5048458;28;20192;-60
2023/03/07 01:13:09;;;;;;;53.57;28.70;;;;;;;4.75;100.00;147246.78;5048605;28;20203;-59
2023/03/07 01:15:37;;;;;;;49.33;31.17;;;;;;;4.66;100.00;147222.88;5048297;28;20285;-61
2023/03/07 01:18:04;;;;;;;45.70;28.73;;;;;;;4.59;100.00;147206.50;5048365;28;20188;-60
2023/03/07 01:20:32;;;;;;;50.77;27.80;;;;;;;4.43;100.00;137581.00;5048547;28;20209;-60
2023/03/07 01:22:59;;;;;;;45.43;26.90;;;;;;;4.54;100.00;130299.94;5048390;28;20201;-60
2023/03/07 01:25:25;;;;;;;38.07;23.73;;;;;;;4.59;100.00;132180.06;5048701;28;20189;-60
2023/03/07 01:27:54;;;;;;;40.97;23.77;;;;;;;4.63;100.00;140849.66;5048211;28;20200;-60
2023/03/07 01:30:22;;;;;;;34.83;22.63;;;;;;;4.57;100.00;147202.75;5048264;28;20222;-59
2023/03/07 01:32:54;;;;;;;33.93;21.63;;;;;;;4.68;100.00;147227.88;5048596;28;20552;-60
2023/03/07 01:35:21;;;;;;;44.67;23.33;;;;;;;4.73;100.00;147241.72;5048183;28;20181;-59
2023/03/07 01:37:48;;;;;;;40.40;23.63;;;;;;;4.69;100.00;147230.41;5048519;28;20217;-60
2023/03/07 01:40:15;;;;;;;38.83;22.60;;;;;;;4.74;100.00;147244.25;5048330;28;20214;-59
2023/03/07 01:42:42;;;;;;;40.67;23.47;;;;;;;4.85;100.00;147271.91;5048428;28;20193;-60
2023/03/07 01:45:42;;;;;;;40.10;24.67;;;;;;;4.68;100.00;147229.16;5047781;28;20189;-59
2023/03/07 01:48:10;;;;;;;40.00;23.80;;;;;;;4.73;100.00;147240.47;5047556;28;20576;-60
2023/03/07 01:50:37;;;;;;;48.67;23.83;;;;;;;4.75;100.00;147245.53;5048188;28;20659;-59
2023/03/07 01:53:03;;;;;;;40.07;23.40;;;;;;;4.75;100.00;147143.53;5047898;28;20182;-59
2023/03/07 01:55:33;;;;;;;37.70;23.83;;;;;;;4.59;100.00;140966.28;5047652;28;20190;-59
2023/03/07 01:58:04;;;;;;;42.37;24.97;;;;;;;4.29;100.00;132876.69;5047383;28;20196;-60
2023/03/07 02:00:31;;;;;;;38.10;24.03;;;;;;;4.42;100.00;124618.09;5047449;28;20205;-60
2023/03/07 02:03:08;;;;;;;44.23;25.87;;;;;;;4.42;100.00;116927.47;5048404;27;20553;-61
2023/03/07 02:05:39;;;;;;;40.53;26.40;;;;;;;4.35;100.00;112520.19;5047833;28;20659;-60
2023/03/07 02:08:09;;;;;;;36.23;23.73;;;;;;;4.44;100.00;107463.34;5045433;28;20214;-60
2023/03/07 02:10:37;;;;;;;38.37;24.20;;;;;;;4.46;100.00;106314.84;5047912;28;20178;-60
2023/03/07 02:13:04;;;;;;;43.03;24.90;;;;;;;4.37;100.00;110022.88;5045062;28;20190;-59
2023/03/07 02:15:33;;;;;;;37.03;23.23;;;;;;;4.37;100.00;107384.13;5047405;28;20733;-59
2023/03/07 02:18:02;;;;;;;37.20;23.17;;;;;;;4.52;100.00;104417.34;5047134;28;20188;-61
2023/03/07 02:20:40;;;;;;;39.57;21.43;;;;;;;4.09;100.00;113408.38;5047108;28;20248;-60
2023/03/07 02:23:12;;;;;;;34.80;20.33;;;;;;;4.36;100.00;112347.44;5045891;28;20602;-60
2023/03/07 02:25:44;;;;;;;28.00;21.23;;;;;;;4.36;100.00;112708.63;5051012;28;20681;-60
2023/03/07 02:28:17;;;;;;;36.33;22.70;;;;;;;4.34;100.00;110390.88;5050734;28;20194;-60
2023/03/07 02:30:56;;;;;;;35.70;21.00;;;;;;;4.20;100.00;108914.91;5051146;28;20632;-61
2023/03/07 02:33:23;;;;;;;34.93;21.33;;;;;;;4.39;100.00;103858.84;5048184;28;20193;-60
2023/03/07 02:35:54;;;;;;;33.20;23.40;;;;;;;4.45;100.00;100236.88;5050813;28;20247;-60
2023/03/07 02:38:23;;;;;;;36.93;21.73;;;;;;;4.42;100.00;92618.16;5050480;28;20185;-61
2023/03/07 02:40:50;;;;;;;31.03;20.23;;;;;;;4.60;100.00;92636.59;5050590;28;20567;-59
2023/03/07 02:43:20;;;;;;;31.53;22.03;;;;;;;4.66;100.00;96708.97;5050488;28;20575;-59
2023/03/07 02:45:47;;;;;;;33.33;22.10;;;;;;;4.68;100.00;100818.09;5048445;28;20189;-61
2023/03/07 02:48:14;;;;;;;32.27;20.93;;;;;;;4.54;100.00;109482.94;5050534;28;20679;-60
2023/03/07 02:50:41;;;;;;;42.73;23.67;;;;;;;4.56;100.00;106041.34;5050635;28;20182;-60
2023/03/07 02:53:08;;;;;;;33.77;21.67;;;;;;;4.50;100.00;113751.88;5050155;28;20193;-61
2023/03/07 02:55:35;;;;;;;35.57;21.77;;;;;;;4.47;100.00;111584.28;5051040;28;20209;-59
2023/03/07 02:58:02;;;;;;;36.20;21.40;;;;;;;4.43;100.00;114086.88;5051059;28;20654;-60
2023/03/07 03:00:30;;;;;;;27.63;20.47;;;;;;;4.35;100.00;123221.75;5051111;28;20691;-60
2023/03/07 03:02:57;;;;;;;40.93;21.10;;;;;;;4.21;100.00;121563.25;5050629;28;20210;-59
2023/03/07 03:05:24;;;;;;;28.13;20.27;;;;;;;4.32;100.00;124176.44;5049930;28;20190;-60
2023/03/07 03:07:51;;;;;;;39.87;22.40;;;;;;;4.34;100.00;124131.97;5050327;28;20194;-59
2023/03/07 03:10:18;;;;;;;37.80;21.50;;;;;;;4.11;100.00;117869.94;5050242;28;20186;-59
2023/03/07 03:12:45;;;;;;;30.73;20.30;;;;;;;4.10;100.00;101501.94;5050559;28;20556;-60
2023/03/07 03:15:12;;;;;;;34.70;19.50;;;;;;;4.16;100.00;96300.66;5050001;28;20193;-60
2023/03/07 03:17:41;;;;;;;33.23;20.30;;;;;;;3.75;100.00;84599.16;5050351;28;20200;-60
2023/03/07 03:20:11;;;;;;;31.80;19.30;;;;;;;4.09;100.00;78118.44;5050260;28;20213;-60
2023/03/07 03:22:38;;;;;;;31.47;21.27;;;;;;;4.22;100.00;73929.66;5050011;28;20200;-60
2023/03/07 03:25:07;;;;;;;29.17;19.27;;;;;;;4.11;100.00;74240.19;5049996;28;20190;-59
2023/03/07 03:27:34;;;;;;;37.73;21.83;;;;;;;4.26;100.00;73611.44;5050178;28;20182;-61
2023/03/07 03:30:01;;;;;;;36.27;21.47;;;;;;;4.38;100.00;70394.56;5049925;28;20192;-60
2023/03/07 03:32:28;;;;;;;34.87;21.40;;;;;;;4.34;100.00;74268.38;5050280;28;20217;-59
2023/03/07 03:34:56;;;;;;;39.67;21.83;;;;;;;4.28;100.00;75230.94;5050148;28;20209;-60
2023/03/07 03:37:23;;;;;;;44.03;22.13;;;;;;;4.38;100.00;67165.50;5050056;28;20284;-60
2023/03/07 03:39:50;;;;;;;51.63;28.37;;;;;;;4.31;100.00;62642.34;5049993;28;20204;-60
2023/03/07 03:42:16;;;;;;;40.97;25.60;;;;;;;3.78;100.00;67096.94;5049976;28;20619;-61
2023/03/07 03:44:43;;;;;;;38.43;19.80;;;;;;;3.61;100.00;63211.25;5049788;28;20185;-59
2023/03/07 03:47:11;;;;;;;39.07;20.90;;;;;;;3.82;100.00;60336.19;5049677;28;20189;-60
2023/03/07 03:49:38;;;;;;;34.20;20.23;;;;;;;3.79;100.00;57438.59;5050306;28;20246;-60
2023/03/07 03:52:06;;;;;;;27.90;18.10;;;;;;;3.76;100.00;58078.66;5049673;28;20189;-60
2023/03/07 03:54:36;;;;;;;43.80;20.63;;;;;;;3.86;100.00;58732.09;5049683;28;20186;-60
2023/03/07 03:57:03;;;;;;;35.20;20.50;;;;;;;3.85;100.00;58408.91;5050051;28;20186;-59
2023/03/07 03:59:30;;;;;;;33.67;20.33;;;;;;;3.79;100.00;51976.56;5049514;28;20200;-60
2023/03/07 04:01:57;;;;;;;34.90;21.00;;;;;;;3.87;100.00;48454.56;5049327;28;20208;-59
2023/03/07 04:04:24;;;;;;;32.77;18.90;;;;;;;3.61;100.00;39468.53;5049442;28;20213;-60
2023/03/07 04:06:51;;;;;;;37.47;19.93;;;;;;;3.98;100.00;37894.56;5049754;28;20193;-59
2023/03/07 04:09:19;;;;;;;41.90;19.77;;;;;;;3.93;100.00;37252.09;5049602;28;20632;-61
2023/03/07 04:11:46;;;;;;;41.50;20.27;;;;;;;3.79;100.00;41399.91;5049328;28;20659;-59
2023/03/07 04:14:13;;;;;;;35.13;19.17;;;;;;;3.84;100.00;45566.94;5049375;28;20284;-59
2023/03/07 04:16:39;;;;;;;47.30;19.70;;;;;;;3.86;100.00;48453.69;5049299;27;20233;-59
2023/03/07 04:19:07;;;;;;;46.47;20.93;;;;;;;3.72;100.00;50045.38;5049529;28;20185;-61
2023/03/07 04:21:34;;;;;;;29.23;18.40;;;;;;;3.58;100.00;49391.72;5049482;28;20617;-60
2023/03/07 04:24:01;;;;;;;27.73;18.10;;;;;;;3.29;100.00;50328.69;5049237;28;20182;-60
2023/03/07 04:26:29;;;;;;;34.40;18.77;;;;;;;3.77;100.00;51332.81;5049169;28;20281;-60
2023/03/07 04:28:56;;;;;;;33.43;18.37;;;;;;;3.50;100.00;43939.19;5049130;28;20193;-60
2023/03/07 04:31:26;;;;;;;35.37;19.47;;;;;;;3.45;100.00;41375.38;5049002;28;20193;-60
2023/03/07 04:33:54;;;;;;;31.60;18.73;;;;;;;3.85;100.00;37886.13;5049305;28;20186;-59
2023/03/07 04:36:22;;;;;;;27.47;19.57;;;;;;;3.86;100.00;35010.38;5048920;28;20196;-60
2023/03/07 04:38:50;;;;;;;34.03;20.23;;;;;;;4.02;100.00;34700.91;5048959;28;20185;-60
2023/03/07 04:41:19;;;;;;;49.13;28.03;;;;;;;4.06;100.00;32467.91;5049156;28;20249;-61
2023/03/07 04:43:47;;;;;;;42.53;22.20;;;;;;;4.19;100.00;28644.81;5048931;28;20190;-59
2023/03/07 04:46:16;;;;;;;50.40;20.97;;;;;;;4.31;100.00;28332.03;5048543;28;20682;-59
2023/03/07 04:48:43;;;;;;;52.80;27.63;;;;;;;4.40;100.00;31529.22;5048766;28;20201;-60
2023/03/07 04:51:11;;;;;;;41.87;20.97;;;;;;;4.11;100.00;40783.13;5048716;28;20196;-60
2023/03/07 04:53:37;;;;;;;48.93;27.80;;;;;;;4.13;100.00;36945.63;5060790;27;20181;-61
2023/03/07 04:56:07;;;;;;;71.30;27.40;;;;;;;4.06;100.00;33425.91;5068186;28;20188;-61
2023/03/07 04:58:38;;;;;;;53.00;27.03;;;;;;;4.07;100.00;31191.53;5068184;28;20193;-59
2023/03/07 05:01:07;;;;;;;52.93;25.77;;;;;;;4.32;100.00;28651.59;5067960;28;20208;-61
2023/03/07 05:03:34;;;;;;;53.10;27.27;;;;;;;4.40;100.00;30570.94;5067052;28;20745;-59
2023/03/07 05:06:03;;;;;;;49.40;26.90;;;;;;;4.63;100.00;29306.03;5053691;28;20193;-61
2023/03/07 05:08:30;;;;;;;55.90;26.13;;;;;;;5.05;100.00;26454.34;5048496;28;20197;-59
2023/03/07 05:10:57;;;;;;;50.63;24.13;;;;;;;5.19;100.00;43105.63;5046327;28;20212;-61
2023/03/07 05:13:24;;;;;;;42.50;23.60;;;;;;;5.54;100.00;59547.09;5047604;28;20624;-61
2023/03/07 05:15:52;;;;;;;52.43;25.37;;;;;;;6.06;100.00;75460.19;5046557;27;20238;-60
2023/03/07 05:18:21;;;;;;;64.77;26.03;;;;;;;6.02;100.00;112634.91;5047348;28;20640;-60
2023/03/07 05:20:48;;;;;;;74.37;27.97;;;;;;;6.29;100.00;138273.38;5047378;28;20292;-61
2023/03/07 05:23:16;;;;;;;78.70;30.00;;;;;;;6.31;100.00;138145.28;5048665;28;20627;-61
2023/03/07 05:25:43;;;;;;;91.13;30.43;;;;;;;6.43;100.00;140110.59;5048206;28;20655;-61
2023/03/07 05:28:10;;;;;;;85.33;31.30;;;;;;;7.36;100.00;147896.63;5048175;28;20195;-56
2023/03/07 05:30:37;;;;;;;88.33;30.67;;;;;;;7.93;100.00;148039.13;5048382;28;20182;-61
2023/03/07 05:33:04;;;;;;;109.10;32.67;;;;;;;8.77;100.00;148247.34;5048525;28;20212;-63
2023/03/07 05:35:33;;;;;;;136.57;34.00;;;;;;;9.39;100.00;148402.63;5048501;28;20198;-62
2023/03/07 05:38:00;;;;;;;139.80;33.03;;;;;;;9.62;100.00;148462.03;5048037;28;20186;-62
2023/03/07 05:40:27;;;;;;;85.27;29.80;;;;;;;9.30;100.00;148379.91;5048210;28;20200;-62
2023/03/07 05:42:54;;;;;;;92.50;30.17;;;;;;;9.18;100.00;148350.88;5048047;28;20190;-62
2023/03/07 05:45:21;;;;;;;63.17;27.47;;;;;;;8.92;100.00;148285.22;5048439;28;20655;-63
2023/03/07 05:47:48;;;;;;;51.77;24.43;;;;;;;8.92;100.00;148285.22;5048100;28;20190;-62
2023/03/07 05:50:15;;;;;;;77.23;27.40;;;;;;;9.20;100.00;148355.94;5047992;28;20196;-62
2023/03/07 05:52:43;;;;;;;50.33;22.40;;;;;;;9.67;100.00;148472.13;5048041;28;20185;-62
2023/03/07 05:55:10;;;;;;;60.07;24.63;;;;;;;10.02;100.00;148560.50;5047999;28;20197;-64
2023/03/07 05:57:37;;;;;;;45.47;23.03;;;;;;;10.35;100.00;148644.00;5047885;28;20190;-62
2023/03/07 06:00:06;;;;;;;42.50;22.73;;;;;;;10.61;100.00;148708.44;5051036;28;20185;-63
2023/03/07 06:02:33;;;;;;;37.67;19.43;;;;;;;10.98;100.00;148800.75;5051352;28;20228;-62
2023/03/07 06:05:00;;;;;;;35.63;21.03;;;;;;;11.39;100.00;148903.16;5051333;28;20276;-63
2023/03/07 06:07:27;;;;;;;50.03;20.90;;;;;;;11.74;100.00;148990.50;5051650;28;20588;-62
2023/03/07 06:09:55;;;;;;;32.23;19.83;;;;;;;12.19;100.00;149104.41;5051255;28;20192;-62
2023/03/07 06:12:22;;;;;;;37.77;20.87;;;;;;;12.15;100.00;149094.25;5051587;28;20555;-63
2023/03/07 06:14:48;;;;;;;43.87;19.83;;;;;;;12.42;100.00;149161.38;5051237;28;20186;-62
2023/03/07 06:17:15;;;;;;;51.70;21.40;;;;;;;12.79;100.00;149253.78;5051032;28;20628;-60
2023/03/07 06:19:42;;;;;;;69.83;21.20;;;;;;;13.90;100.00;149532.53;5051698;28;20185;-68
2023/03/07 06:22:09;;;;;;;62.80;27.70;;;;;;;14.31;100.00;149633.91;5051254;28;20219;-65
2023/03/07 06:24:36;;;;;;;82.57;32.90;;;;;;;14.87;100.00;149776.00;5051703;28;20196;-66
2023/03/07 06:27:05;;;;;;;87.10;33.50;;;;;;;14.93;100.00;149791.22;5051316;28;20196;-66
2023/03/07 06:29:31;;;;;;;48.43;27.70;;;;;;;15.28;100.00;149877.44;5051481;28;20186;-66
2023/03/07 06:31:59;;;;;;;46.40;24.97;;;;;;;15.39;100.00;149905.41;5051221;28;20178;-66
2023/03/07 06:34:26;;;;;;;58.87;31.60;;;;;;;15.60;100.00;149958.72;5051635;28;20186;-67
2023/03/07 06:36:53;;;;;;;55.40;27.03;;;;;;;16.10;100.00;150084.38;5051901;28;20192;-67
2023/03/07 06:39:20;;;;;;;65.20;33.63;;;;;;;16.08;100.00;150078.06;5050968;28;20655;-68
2023/03/07 06:41:48;;;;;;;44.47;30.23;;;;;;;16.18;100.00;150104.69;5050541;28;20254;-67
2023/03/07 06:44:17;;;;;;;60.70;30.00;;;;;;;15.89;100.00;150032.34;5050572;28;20197;-67
2023/03/07 06:46:44;;;;;;;54.53;26.40;;;;;;;16.07;100.00;150076.78;5051063;28;20197;-67
2023/03/07 06:49:12;;;;;;;45.93;25.07;;;;;;;16.08;100.00;150078.06;5050592;28;20651;-67
2023/03/07 06:51:39;;;;;;;25.10;16.63;;;;;;;16.18;100.00;150103.41;5050729;28;20233;-66
2023/03/07 06:54:07;;;;;;;19.70;14.63;;;;;;;16.54;100.00;150193.59;5032526;28;20575;-67
2023/03/07 06:56:34;;;;;;;17.30;15.60;;;;;;;16.47;100.00;150177.06;5050750;28;20268;-67
2023/03/07 06:59:02;;;;;;;17.47;15.73;;;;;;;16.72;100.00;150239.38;5050301;28;20189;-67
2023/03/07 07:01:30;;;;;;;17.63;15.77;;;;;;;17.23;100.00;150367.63;5050626;28;20699;-67
2023/03/07 07:03:57;;;;;;;18.03;15.90;;;;;;;17.33;100.00;150393.06;5050795;28;20288;-68
2023/03/07 07:06:24;;;;;;;17.93;16.20;;;;;;;17.03;100.00;150318.09;5050045;28;20186;-67
2023/03/07 07:08:55;;;;;;;19.27;15.33;;;;;;;16.94;100.00;150293.94;5049690;28;20232;-68
2023/03/07 07:11:22;;;;;;;19.10;15.37;;;;;;;17.03;100.00;150316.81;5049854;28;20234;-67
2023/03/07 07:13:50;;;;;;;19.63;14.07;;;;;;;16.99;100.00;150307.94;5049938;28;20272;-67
2023/03/07 07:16:18;;;;;;;15.20;13.87;;;;;;;17.27;100.00;150379.06;5049853;28;20286;-65
2023/03/07 07:18:46;;;;;;;21.43;13.50;;;;;;;17.61;100.00;150464.25;5050704;28;20185;-66
2023/03/07 07:21:13;;;;;;;18.73;13.00;;;;;;;17.98;98.75;150555.78;5049793;28;20548;-68
2023/03/07 07:23:40;;;;;;;19.17;14.17;;;;;;;18.12;96.82;150591.41;5050006;28;20197;-66
2023/03/07 07:26:07;;;;;;;12.97;11.67;;;;;;;18.11;95.27;150588.84;5050430;28;20584;-67
2023/03/07 07:28:35;;;;;;;12.83;11.57;;;;;;;18.14;95.23;150596.47;5049774;28;20185;-67
2023/03/07 07:31:03;;;;;;;13.00;12.00;;;;;;;18.22;94.80;150616.78;5049938;28;20181;-68
2023/03/07 07:33:30;;;;;;;12.93;12.03;;;;;;;18.11;95.16;150588.84;5050496;28;20185;-67
2023/03/07 07:35:59;;;;;;;13.57;11.03;;;;;;;18.38;93.88;150656.19;5050201;28;20193;-67
2023/03/07 07:38:26;;;;;;;12.13;10.90;;;;;;;18.37;93.06;150654.97;5049582;28;20185;-67
2023/03/07 07:40:52;;;;;;;13.30;10.87;;;;;;;18.90;90.56;150787.25;5049661;28;20276;-67
2023/03/07 07:43:19;;;;;;;13.00;11.83;;;;;;;18.97;86.63;150805.06;5050185;28;20208;-68
2023/03/07 07:45:46;;;;;;;13.17;11.87;;;;;;;18.98;86.66;150808.88;5049782;28;20189;-67
2023/03/07 07:48:13;;;;;;;12.70;11.80;;;;;;;19.12;86.94;150843.25;5049779;28;20559;-68
2023/03/07 07:50:40;;;;;;;13.23;11.97;;;;;;;19.17;86.68;150857.25;5049595;28;20252;-68
2023/03/07 07:53:08;;;;;;;15.57;12.37;;;;;;;19.14;88.45;150848.31;5052236;27;20186;-66
2023/03/07 07:55:35;;;;;;;14.93;12.90;;;;;;;19.33;88.06;150896.69;5049369;28;20277;-68
2023/03/07 07:58:04;;;;;;;12.97;11.77;;;;;;;19.54;85.17;150948.91;5049989;27;20189;-66
2023/03/07 08:00:31;;;;;;;15.63;12.47;;;;;;;19.86;83.01;151030.34;5049238;28;20189;-66
2023/03/07 08:03:03;;;;;;;13.63;12.27;;;;;;;20.11;81.28;151091.50;5050210;27;20221;-69
2023/03/07 08:05:30;;;;;;;14.50;11.37;;;;;;;20.23;78.72;151123.31;5050049;28;20186;-68
2023/03/07 08:07:57;;;;;;;12.47;11.40;;;;;;;20.03;79.54;151072.34;5049521;28;20313;-68
2023/03/07 08:10:25;;;;;;;12.70;10.95;;;;;;;20.19;78.86;151113.13;5049894;27;20203;-67
2023/03/07 08:12:52;;;;;;;11.68;10.15;;;;;;;20.32;77.18;151146.31;5049521;28;20628;-65
2023/03/07 08:15:21;;;;;;;20.17;18.13;;;;;;;20.64;75.79;151225.22;5049226;28;20185;-64
2023/03/07 08:17:49;;;;;;;10.67;9.70;;;;;;;19.90;79.46;151039.31;5049226;28;20201;-68
2023/03/07 08:20:21;;;;;;;10.60;9.18;;;;;;;20.56;75.79;151204.84;5049380;28;20186;-65
2023/03/07 08:22:49;;;;;;;8.90;8.40;;;;;;;20.76;72.36;151255.78;5048875;28;20689;-66
2023/03/07 08:25:19;;;;;;;10.63;9.55;;;;;;;20.52;74.13;151197.22;5117584;27;20253;-64
2023/03/07 08:27:47;;;;;;;9.40;8.80;;;;;;;20.58;74.14;151211.19;5049524;28;20186;-65
2023/03/07 08:30:15;;;;;;;9.50;8.90;;;;;;;20.30;75.95;151141.19;5049383;28;20196;-65
2023/03/07 08:32:42;;;;;;;8.60;8.23;;;;;;;20.87;73.77;151283.84;5049577;28;20543;-64
2023/03/07 08:35:09;;;;;;;8.88;8.27;;;;;;;21.25;69.97;151379.44;5048919;28;20700;-65
2023/03/07 08:37:39;;;;;;;9.20;8.57;;;;;;;22.16;63.57;151610.16;5049202;27;20193;-65
2023/03/07 08:40:07;;;;;;;8.32;8.00;;;;;;;21.92;63.42;151547.66;5048988;27;20655;-65
2023/03/07 08:42:34;;;;;;;13.65;12.40;;;;;;;22.19;63.87;151616.56;5049011;28;20265;-65
2023/03/07 08:45:02;;;;;;;9.90;9.40;;;;;;;22.32;63.04;151650.97;5049184;28;20536;-65
2023/03/07 08:47:30;;;;;;;16.80;8.50;;;;;;;22.24;62.34;151630.56;5117292;27;20185;-65
2023/03/07 08:49:57;;;;;;;11.23;10.07;;;;;;;22.11;62.05;151596.13;5048677;28;20191;-65
2023/03/07 08:52:24;;;;;;;10.55;9.55;;;;;;;22.16;62.69;151608.88;5049273;28;20553;-65
2023/03/07 08:54:51;;;;;;;10.77;9.70;;;;;;;22.91;59.06;151797.72;5048596;27;20295;-65
2023/03/07 08:57:18;;;;;;;9.55;8.68;;;;;;;22.54;60.14;151704.53;5048794;28;20540;-65
2023/03/07 08:59:44;;;;;;;10.50;9.38;;;;;;;22.61;59.99;151723.69;5048849;27;20204;-65
2023/03/07 09:02:13;;;;;;;10.50;9.25;;;;;;;22.77;59.13;151763.25;5049090;28;20647;-65
2023/03/07 09:04:40;;;;;;;9.07;8.40;;;;;;;23.07;56.53;151839.81;5048743;28;20189;-65
2023/03/07 09:07:07;;;;;;;10.73;9.82;;;;;;;23.54;54.06;151957.25;5048619;28;20177;-65
2023/03/07 09:09:34;;;;;;;10.65;8.98;;;;;;;24.10;52.80;152100.16;5049148;28;20624;-64
2023/03/07 09:12:00;;;;;;;8.55;8.02;;;;;;;23.81;53.12;152026.13;5049022;28;20188;-65
2023/03/07 09:14:27;;;;;;;11.23;8.65;;;;;;;24.03;52.84;152081.03;5048800;28;20533;-65
2023/03/07 09:16:54;;;;;;;9.43;8.63;;;;;;;24.28;52.18;152144.91;5122414;27;20569;-65
2023/03/07 09:19:23;;;;;;;9.23;8.52;;;;;;;24.34;51.76;152160.25;5153386;27;20189;-66
2023/03/07 09:21:50;;;;;;;8.65;8.02;;;;;;;24.45;50.48;152188.34;5152734;27;20209;-65
2023/03/07 09:24:17;;;;;;;9.80;8.85;;;;;;;24.77;50.75;152267.53;5152814;27;20189;-65
2023/03/07 09:26:44;;;;;;;8.63;7.93;;;;;;;24.99;48.56;152325.03;5152819;27;20189;-66
2023/03/07 09:29:11;;;;;;;10.27;9.15;;;;;;;24.91;48.62;152304.59;5152799;27;20192;-65
2023/03/07 09:31:39;;;;;;;14.50;9.57;;;;;;;25.01;48.59;152330.16;5153386;27;20657;-64
2023/03/07 09:34:06;;;;;;;8.07;7.68;;;;;;;25.09;47.15;152348.03;5156680;27;20214;-65
2023/03/07 09:36:35;;;;;;;7.50;6.95;;;;;;;25.14;47.83;152360.81;5157186;27;20273;-64
2023/03/07 09:39:03;;;;;;;9.50;8.45;;;;;;;25.19;47.75;152374.88;5157346;27;20632;-66
2023/03/07 09:41:55;;;;;;;11.35;7.68;;;;;;;25.43;46.02;152436.19;5157376;27;20186;-64
2023/03/07 09:44:33;;;;;;;8.38;7.55;;;;;;;26.15;44.81;152616.44;5157435;27;20564;-65
2023/03/07 09:47:16;;;;;;;8.27;7.72;;;;;;;26.37;44.51;152672.75;5156940;27;20332;-65
2023/03/07 09:49:47;;;;;;;13.68;7.47;;;;;;;26.66;43.85;152746.94;5156839;27;20703;-65
2023/03/07 09:52:18;;;;;;;6.90;6.47;;;;;;;26.41;43.04;152681.72;5138345;27;20196;-65
2023/03/07 09:54:49;;;;;;;7.20;6.60;;;;;;;25.05;43.77;152337.81;5157144;27;20192;-65
2023/03/07 09:57:22;;;;;;;7.13;6.60;;;;;;;24.76;45.63;152266.25;5138178;27;20273;-64
2023/03/07 09:59:52;;;;;;;7.90;6.50;;;;;;;24.99;44.59;152325.03;5156647;27;20182;-66
2023/03/07 10:02:27;;;;;;;8.82;7.93;;;;;;;25.50;43.33;152451.56;5156615;27;20228;-65
2023/03/07 10:04:59;;;;;;;7.13;6.63;;;;;;;26.06;42.62;152593.44;5138494;27;20194;-65
2023/03/07 10:07:28;;;;;;;7.47;7.07;;;;;;;26.44;40.93;152690.66;5156475;27;20182;-65
2023/03/07 10:09:59;;;;;;;6.60;6.13;;;;;;;26.71;40.50;152759.72;5156408;27;20182;-65
2023/03/07 10:12:58;;;;;;;5.80;5.60;;;;;;;26.59;40.34;152729.03;5156772;27;20182;-65
2023/03/07 10:15:44;;;;;;;5.72;5.38;;;;;;;26.61;39.33;152732.84;5147262;27;20194;-65
2023/03/07 10:18:34;;;;;;;6.35;5.95;;;;;;;27.29;38.24;152905.56;5157219;27;20201;-68
2023/03/07 10:21:08;;;;;;;6.05;5.50;;;;;;;27.25;38.49;152895.34;5156587;27;20182;-65
2023/03/07 10:23:56;;;;;;;5.28;5.07;;;;;;;28.08;36.17;153106.53;5156697;27;20633;-66
2023/03/07 10:26:31;;;;;;;6.05;5.65;;;;;;;27.36;38.34;152923.50;5156333;27;20194;-66
2023/03/07 10:29:01;;;;;;;7.28;5.28;;;;;;;28.77;36.03;153280.72;5157086;27;20209;-66
2023/03/07 10:31:33;;;;;;;10.48;9.45;;;;;;;26.72;40.44;152762.28;5156416;27;20585;-66
2023/03/07 10:34:11;;;;;;;14.15;11.82;;;;;;;25.89;43.12;152552.53;5155857;27;20174;-66
2023/03/07 10:36:43;;;;;;;15.13;13.35;;;;;;;25.17;44.30;152368.47;5155785;27;20201;-64
2023/03/07 10:39:23;;;;;;;12.35;11.35;;;;;;;25.04;44.41;152335.28;5155734;27;20217;-64
2023/03/07 10:41:50;;;;;;;11.30;10.07;;;;;;;25.21;44.06;152379.97;5156045;27;20181;-66
2023/03/07 10:44:20;;;;;;;10.98;10.07;;;;;;;25.54;44.09;152463.09;5136598;27;20194;-64
2023/03/07 10:46:57;;;;;;;19.20;10.98;;;;;;;23.88;47.52;152044.03;5155749;27;20273;-64
2023/03/07 10:49:28;;;;;;;10.50;9.65;;;;;;;23.83;47.43;152031.28;5155603;27;20186;-64
2023/03/07 10:52:00;;;;;;;9.02;8.52;;;;;;;22.95;49.56;151809.19;5155832;27;20213;-64
2023/03/07 10:54:32;;;;;;;10.45;9.45;;;;;;;22.68;53.03;151740.25;5155618;27;20190;-64
2023/03/07 10:57:07;;;;;;;8.75;8.35;;;;;;;22.28;53.07;151640.75;5155349;27;20220;-64
2023/03/07 10:59:35;;;;;;;11.07;8.75;;;;;;;22.22;54.09;151625.50;5155389;27;20185;-63
2023/03/07 11:02:04;;;;;;;7.95;7.45;;;;;;;22.49;52.94;151693.03;5155149;27;20189;-64
2023/03/07 11:04:43;;;;;;;9.43;8.57;;;;;;;22.85;51.81;151783.66;5155658;27;20178;-63
2023/03/07 11:07:27;;;;;;;8.80;8.10;;;;;;;22.96;52.36;151811.72;5155142;27;20189;-61
2023/03/07 11:09:56;;;;;;;15.77;8.40;;;;;;;23.68;50.14;151992.94;5154901;27;20233;-62
2023/03/07 11:12:25;;;;;;;9.13;8.30;;;;;;;24.14;48.60;152109.16;5155062;27;20175;-64
2023/03/07 11:14:54;;;;;;;9.02;8.48;;;;;;;23.69;49.69;151995.50;5154958;27;20193;-63
2023/03/07 11:17:23;;;;;;;9.32;8.73;;;;;;;23.56;50.75;151962.31;5154950;27;20607;-63
2023/03/07 11:19:53;;;;;;;9.07;8.45;;;;;;;22.99;51.70;151819.41;5155298;27;20182;-66